Time;durP1;ratioP1;P1;durP2;ratioP2;P2;SDS_P1;SDS_P2;PMS_P1;PMS_P2;Temp;Humidity;BMP_temperature;BMP_pressure;BME280_temperature;BME280_humidity;BME280_pressure;Samples;Min_cycle;Max_cycle;Signal;HPM_P1;HPM_P2
2021/07/24 00:00:05;;;;;;;1999.90;999.90;;;21.50;83.50;;;;;;5070436;28;20040;-76
2021/07/24 00:02:30;;;;;;;1999.90;999.90;;;21.50;83.60;;;;;;5070610;28;20032;-76
2021/07/24 00:04:56;;;;;;;1999.90;999.90;;;21.50;83.70;;;;;;5070420;28;20131;-76
2021/07/24 00:07:21;;;;;;;1999.90;999.90;;;21.50;83.90;;;;;;5052664;28;20078;-76
2021/07/24 00:09:47;;;;;;;1999.90;999.90;;;21.40;84.10;;;;;;5035846;28;20115;-76
2021/07/24 00:12:13;;;;;;;1999.90;999.90;;;21.40;84.40;;;;;;5070443;28;20043;-76
2021/07/24 00:14:39;;;;;;;1999.90;999.90;;;21.30;84.40;;;;;;5052421;28;20060;-76
2021/07/24 00:17:05;;;;;;;1999.90;999.90;;;21.30;84.60;;;;;;5070158;28;20424;-75
2021/07/24 00:19:31;;;;;;;1999.90;999.90;;;21.30;84.60;;;;;;5070237;28;20108;-75
2021/07/24 00:21:56;;;;;;;1999.90;999.90;;;21.30;84.80;;;;;;5070161;28;20063;-75
2021/07/24 00:24:22;;;;;;;1999.90;999.90;;;21.20;84.90;;;;;;5052494;28;20375;-76
2021/07/24 00:26:48;;;;;;;1999.90;999.90;;;21.20;85.00;;;;;;5052193;28;20432;-77
2021/07/24 00:29:14;;;;;;;1999.90;999.90;;;21.20;85.10;;;;;;5070205;28;20035;-76
2021/07/24 00:31:41;;;;;;;1999.90;999.90;;;21.20;85.20;;;;;;5052294;28;20033;-78
2021/07/24 00:34:07;;;;;;;1999.90;999.90;;;21.20;85.00;;;;;;5051828;28;20027;-76
2021/07/24 00:36:33;;;;;;;1999.90;999.90;;;21.20;85.10;;;;;;5069822;28;20020;-76
2021/07/24 00:38:59;;;;;;;1999.90;999.90;;;21.20;85.30;;;;;;5051832;28;20395;-76
2021/07/24 00:42:17;;;;;;;1999.90;999.90;;;21.10;85.30;;;;;;5069908;28;20046;-74
2021/07/24 00:44:45;;;;;;;1999.90;999.90;;;21.10;85.60;;;;;;5041346;28;20115;-75
2021/07/24 00:47:24;;;;;;;1999.90;999.90;;;21.10;89.90;;;;;;5068227;28;20028;-75
2021/07/24 00:49:51;;;;;;;1999.90;999.90;;;21.10;85.70;;;;;;5069847;28;20027;-76
2021/07/24 00:52:17;;;;;;;1999.90;999.90;;;21.10;85.00;;;;;;5069829;28;20093;-76
2021/07/24 00:54:43;;;;;;;1999.90;999.90;;;21.10;85.20;;;;;;5051689;28;20429;-76
2021/07/24 00:57:10;;;;;;;1999.90;999.90;;;21.00;85.30;;;;;;5051640;28;20032;-75
2021/07/24 00:59:36;;;;;;;1999.90;999.90;;;21.00;85.40;;;;;;5069735;28;20037;-76
2021/07/24 01:02:03;;;;;;;1999.90;999.90;;;21.00;85.40;;;;;;5069454;28;20032;-76
2021/07/24 01:04:29;;;;;;;1999.90;999.90;;;21.00;85.30;;;;;;5069956;28;20031;-75
2021/07/24 01:06:56;;;;;;;1999.90;999.90;;;21.00;85.30;;;;;;5051225;28;20032;-75
2021/07/24 01:09:24;;;;;;;1999.90;999.90;;;20.90;85.40;;;;;;5069360;28;20047;-75
2021/07/24 01:11:50;;;;;;;1999.90;999.90;;;20.90;85.40;;;;;;5051085;28;20035;-75
2021/07/24 01:14:16;;;;;;;1999.90;999.90;;;20.90;85.30;;;;;;5068997;28;20104;-75
2021/07/24 01:16:42;;;;;;;1999.90;999.90;;;20.90;85.20;;;;;;5069112;28;20057;-76
2021/07/24 01:19:08;;;;;;;1999.90;999.90;;;20.90;85.10;;;;;;5069265;28;20133;-76
2021/07/24 01:21:33;;;;;;;1999.90;999.90;;;20.90;85.10;;;;;;5068998;28;20031;-76
2021/07/24 01:23:59;;;;;;;1999.90;999.90;;;20.80;85.20;;;;;;5051033;28;20024;-75
2021/07/24 01:26:30;;;;;;;1999.90;999.90;;;20.80;85.20;;;;;;5069190;28;20032;-76
2021/07/24 01:28:56;;;;;;;1999.90;999.90;;;20.80;85.30;;;;;;5069071;28;20047;-76
2021/07/24 01:31:23;;;;;;;1999.90;999.90;;;20.80;85.20;;;;;;5068920;28;20024;-75
2021/07/24 01:33:49;;;;;;;1999.90;999.90;;;20.80;85.10;;;;;;5068732;28;20036;-75
2021/07/24 01:36:15;;;;;;;1999.90;999.90;;;20.80;85.10;;;;;;5068639;28;20391;-75
2021/07/24 01:38:41;;;;;;;1999.90;999.90;;;20.80;85.10;;;;;;5068640;28;20032;-75
2021/07/24 01:41:08;;;;;;;1999.90;999.90;;;20.70;85.10;;;;;;5068430;28;20045;-75
2021/07/24 01:43:34;;;;;;;1999.90;999.90;;;20.70;85.10;;;;;;5068613;28;20417;-75
2021/07/24 01:46:00;;;;;;;1999.90;999.90;;;20.60;85.00;;;;;;5068553;28;20060;-77
2021/07/24 01:48:46;;;;;;;1999.90;999.90;;;20.60;85.00;;;;;;5068548;28;20020;-75
2021/07/24 01:54:04;;;;;;;1999.90;999.90;;;20.60;84.80;;;;;;5053619;28;20082;-76
2021/07/24 01:56:33;;;;;;;1999.90;999.90;;;20.50;84.70;;;;;;5068164;28;20513;-76
2021/07/24 01:58:59;;;;;;;1999.90;999.90;;;20.50;84.70;;;;;;5067907;28;20539;-75
2021/07/24 02:01:26;;;;;;;1999.90;999.90;;;20.50;84.60;;;;;;5050152;28;20134;-76
2021/07/24 02:03:56;;;;;;;1999.90;999.90;;;20.40;84.60;;;;;;5068282;28;20368;-75
2021/07/24 02:06:21;;;;;;;1999.90;999.90;;;20.40;84.70;;;;;;5068117;28;20056;-75
2021/07/24 02:08:51;;;;;;;1999.90;999.90;;;20.30;84.50;;;;;;5033653;28;20490;-76
2021/07/24 02:11:19;;;;;;;1999.90;999.90;;;20.30;84.80;;;;;;5068039;28;20441;-75
2021/07/24 02:13:47;;;;;;;1999.90;999.90;;;20.20;84.80;;;;;;5068044;28;20032;-76
2021/07/24 02:16:14;;;;;;;1999.90;999.90;;;20.10;85.00;;;;;;5067993;28;20086;-76
2021/07/24 02:18:40;;;;;;;1999.90;999.90;;;20.10;85.00;;;;;;5050175;28;20031;-77
2021/07/24 02:21:08;;;;;;;1999.90;999.90;;;20.00;85.20;;;;;;5049938;28;20031;-76
2021/07/24 02:23:34;;;;;;;1999.90;999.90;;;20.00;85.20;;;;;;5067954;28;20036;-75
2021/07/24 02:26:00;;;;;;;1999.90;999.90;;;20.00;85.30;;;;;;5067913;28;20025;-75
2021/07/24 02:28:25;;;;;;;1999.90;999.90;;;20.00;85.30;;;;;;5049788;28;20031;-76
2021/07/24 02:30:51;;;;;;;1999.90;999.90;;;20.00;85.20;;;;;;5068000;28;20100;-77
2021/07/24 02:33:18;;;;;;;1999.90;999.90;;;20.00;85.20;;;;;;5067930;28;20036;-77
2021/07/24 02:35:43;;;;;;;1999.90;999.90;;;20.00;85.30;;;;;;5033470;28;20025;-76
2021/07/24 02:38:09;;;;;;;1999.90;999.90;;;19.90;85.40;;;;;;5033146;28;20032;-77
2021/07/24 02:40:36;;;;;;;1999.90;999.90;;;19.90;85.30;;;;;;5067781;28;20133;-75
2021/07/24 02:43:02;;;;;;;1999.90;999.90;;;19.90;85.30;;;;;;5067680;28;20429;-76
2021/07/24 02:45:28;;;;;;;1999.90;999.90;;;19.90;85.40;;;;;;5067636;28;20469;-76
2021/07/24 02:47:54;;;;;;;1999.90;999.90;;;19.90;85.40;;;;;;5067550;28;20073;-75
2021/07/24 02:50:19;;;;;;;1999.90;999.90;;;19.80;85.50;;;;;;5049926;28;20497;-77
2021/07/24 02:52:45;;;;;;;1999.90;999.90;;;19.80;85.60;;;;;;5067421;28;20556;-76
2021/07/24 02:55:11;;;;;;;1999.90;999.90;;;19.60;85.80;;;;;;5067486;28;20172;-76
2021/07/24 02:57:37;;;;;;;1999.90;999.90;;;19.60;86.00;;;;;;5049687;28;20032;-75
2021/07/24 03:00:04;;;;;;;1999.90;999.90;;;19.60;86.00;;;;;;5029426;28;20053;-76
2021/07/24 03:02:30;;;;;;;1999.90;999.90;;;19.50;86.20;;;;;;5047473;28;20504;-77
2021/07/24 03:04:56;;;;;;;1999.90;999.90;;;19.40;86.40;;;;;;5047475;28;20055;-76
2021/07/24 03:07:22;;;;;;;1999.90;999.90;;;19.40;86.40;;;;;;5047349;28;20040;-76
2021/07/24 03:09:47;;;;;;;1999.90;999.90;;;19.40;86.50;;;;;;5046070;28;20109;-76
2021/07/24 03:12:16;;;;;;;1999.90;999.90;;;19.50;86.50;;;;;;5049862;28;20033;-77
2021/07/24 03:14:43;;;;;;;1999.90;999.90;;;19.40;87.00;;;;;;5050304;28;20476;-77
2021/07/24 03:17:08;;;;;;;1999.90;999.90;;;19.30;86.50;;;;;;5051398;28;20041;-75
2021/07/24 03:19:34;;;;;;;1999.90;999.90;;;19.40;86.60;;;;;;5051425;28;20029;-75
2021/07/24 03:22:00;;;;;;;1999.90;999.90;;;19.30;86.80;;;;;;5050432;28;20056;-76
2021/07/24 03:24:25;;;;;;;1999.90;999.90;;;19.30;87.00;;;;;;5051367;28;20480;-76
2021/07/24 03:26:51;;;;;;;1999.90;999.90;;;19.20;87.20;;;;;;5051311;28;20043;-76
2021/07/24 03:29:17;;;;;;;1999.90;999.90;;;19.20;87.30;;;;;;5049918;28;20087;-76
2021/07/24 03:31:42;;;;;;;1999.90;999.90;;;19.20;87.20;;;;;;5051356;28;20391;-75
2021/07/24 03:34:08;;;;;;;1999.90;999.90;;;19.20;87.20;;;;;;5051300;28;20071;-76
2021/07/24 03:36:34;;;;;;;1999.90;999.90;;;19.20;87.40;;;;;;5049653;28;20510;-76
2021/07/24 03:39:00;;;;;;;1999.90;999.90;;;19.20;87.40;;;;;;5049866;28;20029;-75
2021/07/24 03:41:25;;;;;;;1999.90;999.90;;;19.20;87.40;;;;;;5049979;28;20491;-76
2021/07/24 03:43:51;;;;;;;1999.90;999.90;;;19.20;87.50;;;;;;5050875;28;20029;-75
2021/07/24 03:46:19;;;;;;;1999.90;999.90;;;19.20;87.40;;;;;;5050820;28;20036;-76
2021/07/24 03:48:45;;;;;;;1999.90;999.90;;;19.20;87.50;;;;;;5050846;28;20028;-76
2021/07/24 03:51:12;;;;;;;1999.90;999.90;;;19.20;87.60;;;;;;5051044;28;20021;-76
2021/07/24 03:53:39;;;;;;;1999.90;999.90;;;19.10;87.70;;;;;;5049657;28;20553;-76
2021/07/24 03:56:06;;;;;;;1999.90;999.90;;;19.00;87.80;;;;;;5049593;28;20154;-75
2021/07/24 03:58:31;;;;;;;1999.90;999.90;;;19.00;88.00;;;;;;5050690;28;20454;-75
2021/07/24 04:01:00;;;;;;;1999.90;999.90;;;18.90;88.30;;;;;;5066338;28;20159;-76
2021/07/24 04:03:25;;;;;;;1999.90;999.90;;;18.90;88.40;;;;;;5070523;28;20028;-77
2021/07/24 04:05:55;;;;;;;1999.90;999.90;;;18.80;88.60;;;;;;5052783;28;20028;-75
2021/07/24 04:08:21;;;;;;;1999.90;999.90;;;18.80;88.70;;;;;;5052421;28;20442;-75
2021/07/24 04:10:47;;;;;;;1999.90;999.90;;;18.80;88.80;;;;;;5052774;28;20113;-76
2021/07/24 04:13:13;;;;;;;1999.90;999.90;;;18.80;88.90;;;;;;5070443;28;20275;-77
2021/07/24 04:15:39;;;;;;;1999.90;999.90;;;18.80;88.90;;;;;;5070382;28;20430;-76
2021/07/24 04:18:07;;;;;;;1999.90;999.90;;;18.80;88.90;;;;;;5052217;28;20033;-76
2021/07/24 04:20:35;;;;;;;1999.90;999.90;;;18.80;88.80;;;;;;5052577;28;20032;-75
2021/07/24 04:23:01;;;;;;;1999.90;999.90;;;18.80;88.80;;;;;;5052100;28;20538;-76
2021/07/24 04:25:27;;;;;;;1999.90;999.90;;;18.80;88.80;;;;;;5070236;28;20116;-75
2021/07/24 04:27:52;;;;;;;1999.90;999.90;;;18.80;88.70;;;;;;5035438;28;20037;-76
2021/07/24 04:30:18;;;;;;;1999.90;999.90;;;18.80;88.70;;;;;;5070091;28;20025;-76
2021/07/24 04:32:44;;;;;;;1999.90;999.90;;;18.80;88.90;;;;;;5070019;28;20032;-77
2021/07/24 04:35:10;;;;;;;1999.90;999.90;;;18.70;88.90;;;;;;5035512;28;20483;-77
2021/07/24 04:37:35;;;;;;;1999.90;999.90;;;18.70;88.90;;;;;;5052221;28;20037;-77
2021/07/24 04:40:02;;;;;;;1999.90;999.90;;;18.70;88.90;;;;;;5051950;28;20467;-76
2021/07/24 04:42:28;;;;;;;1999.90;999.90;;;18.70;88.90;;;;;;5069953;28;20379;-76
2021/07/24 04:44:54;;;;;;;1999.90;999.90;;;18.80;88.80;;;;;;5069882;28;20025;-77
2021/07/24 04:47:19;;;;;;;1999.90;999.90;;;18.70;88.70;;;;;;5069663;28;20029;-76
2021/07/24 04:49:48;;;;;;;1999.90;999.90;;;18.70;88.80;;;;;;5069713;28;20079;-76
2021/07/24 04:52:15;;;;;;;1999.90;999.90;;;18.70;88.90;;;;;;5051742;28;20142;-76
2021/07/24 04:54:42;;;;;;;1999.90;999.90;;;18.70;88.80;;;;;;5051533;28;20305;-77
2021/07/24 04:57:09;;;;;;;1999.90;999.90;;;18.70;88.80;;;;;;5051366;28;20162;-77
2021/07/24 04:59:46;;;;;;;1999.90;999.90;;;18.80;88.80;;;;;;5052058;28;20093;-76
2021/07/24 05:02:16;;;;;;;1999.90;999.90;;;18.80;88.70;;;;;;5069527;28;20334;-75
2021/07/24 05:04:47;;;;;;;1999.90;999.90;;;18.80;88.50;;;;;;5069461;28;20024;-77
2021/07/24 05:07:14;;;;;;;1999.90;999.90;;;18.80;88.50;;;;;;5069215;28;20127;-78
2021/07/24 05:09:42;;;;;;;1999.90;999.90;;;18.80;88.50;;;;;;5069405;28;20356;-76
2021/07/24 05:12:09;;;;;;;1999.90;999.90;;;18.80;88.60;;;;;;5069451;28;20032;-76
2021/07/24 05:14:35;;;;;;;1999.90;999.90;;;18.90;88.50;;;;;;5051525;28;20513;-76
2021/07/24 05:17:11;;;;;;;1999.90;999.90;;;18.80;88.60;;;;;;5069122;28;20449;-76
2021/07/24 05:19:55;;;;;;;1999.90;999.90;;;18.90;88.70;;;;;;5051492;28;20122;-77
2021/07/24 05:22:20;;;;;;;1999.90;999.90;;;18.90;88.80;;;;;;5051227;28;20028;-76
2021/07/24 05:24:46;;;;;;;1999.90;999.90;;;18.90;88.70;;;;;;5069015;28;20033;-76
2021/07/24 05:27:13;;;;;;;1999.90;999.90;;;18.90;88.70;;;;;;5068959;28;20127;-75
2021/07/24 05:29:40;;;;;;;1999.90;999.90;;;18.90;88.70;;;;;;5069341;28;20486;-77
2021/07/24 05:32:06;;;;;;;1999.90;999.90;;;18.90;88.70;;;;;;5069038;28;20063;-76
2021/07/24 05:34:32;;;;;;;1999.90;999.90;;;19.00;88.70;;;;;;5068003;28;20105;-77
2021/07/24 05:36:57;;;;;;;1999.90;999.90;;;19.00;88.60;;;;;;5068414;28;20483;-78
2021/07/24 05:39:23;;;;;;;1999.90;999.90;;;19.10;88.30;;;;;;5033984;28;20051;-75
2021/07/24 05:41:49;;;;;;;1999.90;999.90;;;19.20;88.20;;;;;;5068542;28;20316;-76
2021/07/24 05:44:17;;;;;;;1999.90;999.90;;;19.20;88.20;;;;;;5068635;28;20033;-76
2021/07/24 05:46:44;;;;;;;1999.90;999.90;;;19.30;88.00;;;;;;5050550;28;20036;-76
2021/07/24 05:49:10;;;;;;;1999.90;999.90;;;19.30;87.70;;;;;;5068665;28;20042;-76
2021/07/24 05:51:38;;;;;;;1999.90;999.90;;;19.40;87.40;;;;;;5068596;28;20021;-76
2021/07/24 05:54:03;;;;;;;1999.90;999.90;;;19.50;87.50;;;;;;5068573;28;20025;-76
2021/07/24 05:56:29;;;;;;;1999.90;999.90;;;19.60;87.20;;;;;;5068238;28;20364;-77
2021/07/24 05:58:55;;;;;;;1999.90;999.90;;;19.80;87.00;;;;;;5050694;28;20033;-77
2021/07/24 06:01:21;;;;;;;1999.90;999.90;;;19.80;86.70;;;;;;5068120;28;20052;-76
2021/07/24 06:03:47;;;;;;;1999.90;999.90;;;19.90;86.50;;;;;;5050290;28;20120;-75
2021/07/24 06:06:13;;;;;;;1999.90;999.90;;;20.00;86.40;;;;;;5050067;28;20120;-77
2021/07/24 06:08:38;;;;;;;1999.90;999.90;;;20.00;86.10;;;;;;5049900;28;20031;-77
2021/07/24 06:11:05;;;;;;;1999.90;999.90;;;20.10;85.80;;;;;;5050199;28;20024;-77
2021/07/24 06:13:32;;;;;;;1999.90;999.90;;;20.20;85.50;;;;;;5068211;28;20360;-75
2021/07/24 06:15:58;;;;;;;1999.90;999.90;;;20.40;85.30;;;;;;5068285;28;20025;-76
2021/07/24 06:18:24;;;;;;;1999.90;999.90;;;20.50;84.90;;;;;;5049944;28;20119;-75
2021/07/24 06:20:50;;;;;;;1999.90;999.90;;;20.70;84.40;;;;;;5067893;28;20111;-76
2021/07/24 06:23:17;;;;;;;1999.90;999.90;;;20.90;83.70;;;;;;5068018;28;20031;-76
2021/07/24 06:25:43;;;;;;;1999.90;999.90;;;21.00;83.10;;;;;;5033454;28;20028;-77
2021/07/24 06:28:10;;;;;;;1999.90;999.90;;;21.20;82.70;;;;;;5049927;28;20055;-76
2021/07/24 06:30:35;;;;;;;1999.90;999.90;;;21.30;82.20;;;;;;5067884;28;20028;-77
2021/07/24 06:33:01;;;;;;;1999.90;999.90;;;21.40;81.90;;;;;;5049764;28;20081;-77
2021/07/24 06:35:27;;;;;;;1999.90;999.90;;;21.60;81.40;;;;;;5050063;28;20024;-77
2021/07/24 06:37:52;;;;;;;1999.90;999.90;;;21.70;80.70;;;;;;5067678;28;20047;-76
2021/07/24 06:40:19;;;;;;;1999.90;999.90;;;21.60;80.10;;;;;;5049595;28;20021;-76
2021/07/24 06:42:44;;;;;;;1999.90;999.90;;;21.60;80.20;;;;;;5067769;28;20031;-76
2021/07/24 06:45:11;;;;;;;1999.90;999.90;;;21.70;80.20;;;;;;5067524;28;20017;-77
2021/07/24 06:47:36;;;;;;;1999.90;999.90;;;21.90;79.80;;;;;;5067280;28;20499;-77
2021/07/24 06:50:02;;;;;;;1999.90;999.90;;;22.00;79.60;;;;;;5049447;28;20039;-76
2021/07/24 06:52:28;;;;;;;1999.90;999.90;;;22.30;79.00;;;;;;5067420;28;20052;-76
2021/07/24 06:54:54;;;;;;;1999.90;999.90;;;22.60;78.20;;;;;;5049498;28;20028;-76
2021/07/24 06:57:19;;;;;;;1999.90;999.90;;;22.90;77.30;;;;;;5049206;28;20036;-76
2021/07/24 06:59:45;;;;;;;1999.90;999.90;;;23.30;76.60;;;;;;5067080;28;20060;-76
2021/07/24 07:02:11;;;;;;;1999.90;999.90;;;23.60;75.60;;;;;;5067435;28;20399;-76
2021/07/24 07:04:37;;;;;;;1999.90;999.90;;;23.90;74.50;;;;;;5067097;28;20620;-77
2021/07/24 07:07:05;;;;;;;1999.90;999.90;;;23.80;73.90;;;;;;5049281;28;20047;-77
2021/07/24 07:09:30;;;;;;;1999.90;999.90;;;23.80;73.60;;;;;;5067232;28;20309;-77
2021/07/24 07:11:59;;;;;;;1999.90;999.90;;;23.90;73.30;;;;;;5067303;28;20058;-76
2021/07/24 07:14:26;;;;;;;1999.90;999.90;;;23.90;73.40;;;;;;5067117;28;20031;-77
2021/07/24 07:16:52;;;;;;;1999.90;999.90;;;24.00;73.00;;;;;;5067163;28;20037;-75
2021/07/24 07:19:18;;;;;;;1999.90;999.90;;;24.10;72.80;;;;;;5067284;28;20083;-76
2021/07/24 07:21:44;;;;;;;1999.90;999.90;;;24.50;73.00;;;;;;5067355;28;20016;-76
2021/07/24 07:24:10;;;;;;;1999.90;999.90;;;25.60;72.70;;;;;;5067117;28;20031;-75
2021/07/24 07:26:36;;;;;;;1999.90;999.90;;;26.90;70.50;;;;;;5066868;28;20044;-77
2021/07/24 07:29:03;;;;;;;1999.90;999.90;;;27.80;68.70;;;;;;5032510;28;20037;-76
2021/07/24 07:31:30;;;;;;;1999.90;999.90;;;28.40;66.60;;;;;;5067064;28;20493;-77
2021/07/24 07:33:56;;;;;;;1999.90;999.90;;;28.20;64.40;;;;;;5067165;28;20048;-77
2021/07/24 07:36:22;;;;;;;1999.90;999.90;;;27.70;63.80;;;;;;5066868;28;20032;-75
2021/07/24 07:38:48;;;;;;;1999.90;999.90;;;27.20;63.70;;;;;;5066842;28;20028;-77
2021/07/24 07:41:13;;;;;;;1999.90;999.90;;;26.60;63.70;;;;;;5066931;28;20028;-76
2021/07/24 07:43:39;;;;;;;1999.90;999.90;;;26.00;64.10;;;;;;5066633;28;20021;-76
2021/07/24 07:46:05;;;;;;;1999.90;999.90;;;25.50;64.80;;;;;;5066394;28;20032;-77
2021/07/24 07:48:35;;;;;;;1999.90;999.90;;;25.50;65.40;;;;;;5066715;28;20029;-75
2021/07/24 07:51:01;;;;;;;;;;;25.70;65.00;;;;;;5049619;28;20028;-77
2021/07/24 07:53:26;;;;;;;1999.90;999.90;;;26.20;66.40;;;;;;5066830;28;19956;-76
2021/07/24 07:55:52;;;;;;;1999.90;999.90;;;26.80;65.70;;;;;;5048584;28;20044;-76
2021/07/24 07:58:18;;;;;;;1999.90;999.90;;;26.70;63.70;;;;;;5069942;28;20102;-77
2021/07/24 08:00:43;;;;;;;1999.90;999.90;;;26.20;63.10;;;;;;5051886;28;20054;-76
2021/07/24 08:03:09;;;;;;;1999.90;999.90;;;25.80;63.50;;;;;;5069990;28;20393;-76
2021/07/24 08:05:35;;;;;;;1999.90;999.90;;;25.50;64.10;;;;;;5070029;28;20108;-76
2021/07/24 08:08:00;;;;;;;1999.90;999.90;;;25.60;64.90;;;;;;5052315;28;20056;-76
2021/07/24 08:10:26;;;;;;;1999.90;999.90;;;26.80;65.50;;;;;;5069555;28;20062;-76
2021/07/24 08:12:53;;;;;;;1999.90;999.90;;;27.80;63.30;;;;;;5052020;28;20056;-76
2021/07/24 08:15:19;;;;;;;1999.90;999.90;;;28.40;62.30;;;;;;5069949;28;20040;-76
2021/07/24 08:17:45;;;;;;;1999.90;999.90;;;28.60;61.40;;;;;;5052108;28;20446;-77
2021/07/24 08:20:11;;;;;;;1999.90;999.90;;;28.80;60.90;;;;;;5069853;28;20104;-77
2021/07/24 08:22:37;;;;;;;1999.90;999.90;;;28.70;60.00;;;;;;5035226;28;20473;-76
2021/07/24 08:25:06;;;;;;;1999.90;999.90;;;28.40;60.00;;;;;;5069948;28;20086;-76
2021/07/24 08:27:33;;;;;;;1999.90;999.90;;;28.50;59.90;;;;;;5069777;28;20052;-77
2021/07/24 08:29:58;;;;;;;1999.90;999.90;;;28.60;59.60;;;;;;5069830;28;20032;-76
2021/07/24 08:32:24;;;;;;;1999.90;999.90;;;28.50;58.60;;;;;;5069722;28;20426;-78
2021/07/24 08:34:51;;;;;;;1999.90;999.90;;;28.80;59.20;;;;;;5051746;28;20119;-77
2021/07/24 08:37:17;;;;;;;1999.90;999.90;;;29.50;58.80;;;;;;5051415;28;20467;-77
2021/07/24 08:39:43;;;;;;;1999.90;999.90;;;30.30;57.80;;;;;;5069385;28;20020;-77
2021/07/24 08:42:25;;;;;;;1999.90;999.90;;;30.30;56.30;;;;;;5069571;28;20360;-77
2021/07/24 08:44:50;;;;;;;1999.90;999.90;;;29.60;58.40;;;;;;5069444;28;20017;-76
2021/07/24 08:47:16;;;;;;;1999.90;999.90;;;28.80;55.40;;;;;;5069259;28;20036;-77
2021/07/24 08:49:42;;;;;;;1999.90;999.90;;;28.10;55.70;;;;;;5069295;28;20028;-76
2021/07/24 08:52:11;;;;;;;1999.90;999.90;;;27.80;56.60;;;;;;5051157;28;20028;-77
2021/07/24 08:54:36;;;;;;;1999.90;999.90;;;27.70;56.90;;;;;;5069841;28;20029;-78
2021/07/24 08:57:06;;;;;;;1999.90;999.90;;;27.60;57.00;;;;;;5069015;28;20407;-76
2021/07/24 08:59:35;;;;;;;1999.90;999.90;;;28.10;57.90;;;;;;5050951;28;20044;-77
2021/07/24 09:02:01;;;;;;;1999.90;999.90;;;29.20;57.40;;;;;;5068896;28;20033;-77
2021/07/24 09:04:29;;;;;;;1999.90;999.90;;;30.10;56.10;;;;;;5050912;28;20028;-78
2021/07/24 09:06:59;;;;;;;1999.90;999.90;;;30.90;55.40;;;;;;5050396;28;20039;-77
2021/07/24 09:09:26;;;;;;;1999.90;999.90;;;31.70;54.50;;;;;;5049538;28;20459;-77
2021/07/24 09:11:52;;;;;;;1999.90;999.90;;;31.90;53.00;;;;;;5068887;28;20119;-77
2021/07/24 09:14:17;;;;;;;1999.90;999.90;;;31.30;52.10;;;;;;5068866;28;20104;-75
2021/07/24 09:16:44;;;;;;;1999.90;999.90;;;30.50;51.80;;;;;;5068645;28;20443;-76
2021/07/24 09:19:11;;;;;;;1999.90;999.90;;;29.70;52.20;;;;;;5050746;28;20028;-75
2021/07/24 09:21:39;;;;;;;1999.90;999.90;;;28.90;52.30;;;;;;5068744;28;20079;-76
2021/07/24 09:26:52;;;;;;;1999.90;999.90;;;28.00;53.30;;;;;;5106782;27;20733;-75
2021/07/24 09:29:19;;;;;;;1999.90;999.90;;;27.90;54.00;;;;;;5103065;28;20036;-77
2021/07/24 09:31:46;;;;;;;1999.90;999.90;;;27.80;54.10;;;;;;5110693;28;20093;-77
2021/07/24 09:34:14;;;;;;;1999.90;999.90;;;27.60;54.10;;;;;;5110600;28;20383;-78
2021/07/24 09:36:41;;;;;;;1999.90;999.90;;;27.60;54.20;;;;;;5110246;28;20020;-77
2021/07/24 09:39:15;;;;;;;1999.90;999.90;;;27.50;54.30;;;;;;5085789;28;20032;-78
2021/07/24 09:41:42;;;;;;;1999.90;999.90;;;27.80;55.40;;;;;;5101812;28;20553;-75
2021/07/24 09:44:08;;;;;;;1999.90;999.90;;;28.90;55.70;;;;;;5110350;28;20115;-75
2021/07/24 09:46:34;;;;;;;1999.90;999.90;;;29.90;54.70;;;;;;5109879;28;20202;-78
2021/07/24 09:49:36;;;;;;;1999.90;999.90;;;30.90;53.60;;;;;;5109651;28;20020;-76
2021/07/24 09:52:14;;;;;;;1999.90;999.90;;;31.60;52.10;;;;;;5102773;28;20056;-76
2021/07/24 09:54:41;;;;;;;1999.90;999.90;;;32.00;51.80;;;;;;5100926;28;20081;-76
2021/07/24 09:57:07;;;;;;;1999.90;999.90;;;32.70;51.90;;;;;;5101955;28;20078;-75
2021/07/24 09:59:34;;;;;;;1999.90;999.90;;;33.40;51.50;;;;;;5104102;28;20028;-75
2021/07/24 10:02:04;;;;;;;1999.90;999.90;;;34.10;50.80;;;;;;5099923;28;20024;-76
2021/07/24 10:04:32;;;;;;;1999.90;999.90;;;34.90;49.60;;;;;;5102109;28;20016;-76
2021/07/24 10:07:05;;;;;;;1999.90;999.90;;;35.40;48.80;;;;;;5096747;28;20515;-76
2021/07/24 10:09:36;;;;;;;1999.90;999.90;;;35.70;48.20;;;;;;5100095;28;20055;-75
2021/07/24 10:12:12;;;;;;;1999.90;999.90;;;36.10;47.50;;;;;;5108174;28;20020;-76
2021/07/24 10:14:39;;;;;;;1999.90;999.90;;;36.20;46.60;;;;;;5093481;28;20347;-77
2021/07/24 10:17:06;;;;;;;1999.90;999.90;;;36.40;47.00;;;;;;5091132;28;20064;-77
2021/07/24 10:19:32;;;;;;;1999.90;999.90;;;36.70;46.00;;;;;;5102043;28;20436;-79
2021/07/24 10:22:00;;;;;;;1999.90;999.90;;;36.80;45.60;;;;;;5092161;28;20019;-78
2021/07/24 10:24:26;;;;;;;1999.90;999.90;;;36.60;45.30;;;;;;5095803;28;20113;-78
2021/07/24 10:27:01;;;;;;;1999.90;999.90;;;36.50;45.30;;;;;;5101349;28;20091;-78
2021/07/24 10:29:35;;;;;;;1999.90;999.90;;;36.00;45.00;;;;;;5103528;28;20007;-75
2021/07/24 10:32:11;;;;;;;1999.90;999.90;;;35.80;45.30;;;;;;5106568;28;20543;-77
2021/07/24 10:34:48;;;;;;;1999.90;999.90;;;36.00;45.80;;;;;;5102196;28;20016;-78
2021/07/24 10:37:32;;;;;;;1999.90;999.90;;;36.60;45.60;;;;;;5088459;28;20016;-78
2021/07/24 10:40:16;;;;;;;1999.90;999.90;;;36.90;45.10;;;;;;5090123;28;20020;-79
2021/07/24 10:42:50;;;;;;;1999.90;999.90;;;36.80;44.50;;;;;;5082391;28;20512;-78
2021/07/24 10:45:31;;;;;;;1999.90;999.90;;;36.80;44.60;;;;;;5087563;28;20028;-77
2021/07/24 10:48:15;;;;;;;1999.90;999.90;;;36.90;44.20;;;;;;5082928;28;20122;-76
2021/07/24 10:50:53;;;;;;;1999.90;999.90;;;37.20;44.10;;;;;;5082859;28;20027;-77
2021/07/24 10:53:27;;;;;;;1999.90;999.90;;;37.20;43.60;;;;;;5083895;28;20418;-76
2021/07/24 10:55:57;;;;;;;1999.90;999.90;;;37.20;43.80;;;;;;5093006;28;20031;-77
2021/07/24 10:58:28;;;;;;;1999.90;999.90;;;37.70;43.80;;;;;;5084754;28;20111;-77
2021/07/24 11:00:57;;;;;;;1999.90;999.90;;;37.60;42.90;;;;;;5073145;28;20056;-77
2021/07/24 11:03:34;;;;;;;1999.90;999.90;;;37.00;42.70;;;;;;5073229;28;20025;-78
2021/07/24 11:06:01;;;;;;;1999.90;999.90;;;36.50;42.80;;;;;;5072718;28;20029;-77
2021/07/24 11:08:58;;;;;;;1999.90;999.90;;;36.10;43.10;;;;;;5073125;28;20029;-78
2021/07/24 11:11:43;;;;;;;1999.90;999.90;;;35.70;43.10;;;;;;5073524;28;20027;-75
2021/07/24 11:14:38;;;;;;;1999.90;999.90;;;35.40;43.00;;;;;;5080894;28;20021;-78
2021/07/24 11:17:07;;;;;;;1999.90;999.90;;;35.00;43.70;;;;;;5085515;28;20020;-75
2021/07/24 11:19:35;;;;;;;1999.90;999.90;;;35.20;44.10;;;;;;5085926;28;20390;-76
2021/07/24 11:22:24;;;;;;;1999.90;999.90;;;35.70;44.00;;;;;;5086854;28;20391;-76
2021/07/24 11:24:50;;;;;;;1999.90;999.90;;;36.30;43.70;;;;;;5077622;28;20548;-78
2021/07/24 11:27:26;;;;;;;1999.90;999.90;;;36.60;42.90;;;;;;5085583;28;20024;-78
2021/07/24 11:30:13;;;;;;;1999.90;999.90;;;36.40;42.50;;;;;;5089947;28;20103;-78
2021/07/24 11:32:43;;;;;;;1999.90;999.90;;;36.20;42.80;;;;;;5079077;28;20092;-77
2021/07/24 11:35:13;;;;;;;1999.90;999.90;;;36.30;43.10;;;;;;5083544;28;20047;-77
2021/07/24 11:37:48;;;;;;;1999.90;999.90;;;36.30;43.00;;;;;;5086956;28;20027;-76
2021/07/24 11:40:15;;;;;;;1999.90;999.90;;;35.80;42.60;;;;;;5086870;28;20500;-78
2021/07/24 11:42:41;;;;;;;1999.90;999.90;;;35.70;42.90;;;;;;5080470;28;20031;-77
2021/07/24 11:45:08;;;;;;;1999.90;999.90;;;35.40;43.00;;;;;;5082326;28;20028;-78
2021/07/24 11:47:34;;;;;;;1999.90;999.90;;;35.20;43.10;;;;;;5081422;28;20092;-78
2021/07/24 11:50:19;;;;;;;1999.90;999.90;;;35.20;43.30;;;;;;5078440;28;20051;-77
2021/07/24 11:52:49;;;;;;;1999.90;999.90;;;35.50;43.40;;;;;;5087073;28;20591;-76
2021/07/24 11:55:28;;;;;;;1999.90;999.90;;;35.60;43.00;;;;;;5084299;28;20452;-76
2021/07/24 11:58:01;;;;;;;;;;;35.60;42.80;;;;;;5079741;28;20614;-77
2021/07/24 12:00:41;;;;;;;1999.90;999.90;;;35.60;43.20;;;;;;5079169;28;19927;-76
2021/07/24 12:03:24;;;;;;;1999.90;999.90;;;35.50;42.90;;;;;;5074429;28;20108;-77
2021/07/24 12:06:08;;;;;;;1999.90;999.90;;;35.40;42.90;;;;;;5079150;28;20017;-76
2021/07/24 12:08:36;;;;;;;1999.90;999.90;;;35.20;43.10;;;;;;5079409;28;20028;-77
2021/07/24 12:11:03;;;;;;;1999.90;999.90;;;35.50;43.40;;;;;;5078073;28;20050;-77